Time;durP1;ratioP1;P1;durP2;ratioP2;P2;SDS_P1;SDS_P2;PMS_P1;PMS_P2;Temp;Humidity;BMP_temperature;BMP_pressure;BME280_temperature;BME280_humidity;BME280_pressure;Samples;Min_cycle;Max_cycle;Signal;HPM_P1;HPM_P2
2022/01/26 00:07:51;;;;;;;;;;;3.20;99.90;;;;;;5048492;28;20359;-43
2022/01/26 00:10:17;;;;;;;;;;;3.20;99.90;;;;;;5051090;28;19923;-43
2022/01/26 00:12:43;;;;;;;;;;;3.10;99.90;;;;;;5088741;28;19962;-42
2022/01/26 00:15:09;;;;;;;;;;;3.20;99.90;;;;;;5067399;28;19954;-43
2022/01/26 00:17:35;;;;;;;;;;;3.10;99.90;;;;;;5070272;28;19916;-44
2022/01/26 00:20:26;;;;;;;;;;;3.10;99.90;;;;;;5071861;28;19931;-42
2022/01/26 00:27:57;;;;;;;;;;;3.10;99.90;;;;;;5086198;28;19920;-43
2022/01/26 00:38:49;;;;;;;;;;;3.00;99.90;;;;;;5051715;28;20054;-43
2022/01/26 00:41:19;;;;;;;;;;;3.00;99.90;;;;;;5038929;28;19999;-42
2022/01/26 00:43:52;;;;;;;;;;;3.00;99.90;;;;;;5070246;28;19916;-42
2022/01/26 00:46:18;;;;;;;;;;;3.00;99.90;;;;;;5051349;28;19916;-44
2022/01/26 00:48:44;;;;;;;;;;;3.00;99.90;;;;;;5062380;28;19917;-43
2022/01/26 00:51:14;;;;;;;;;;;3.00;99.90;;;;;;5071298;28;20371;-43
2022/01/26 00:53:50;;;;;;;;;;;3.00;99.90;;;;;;5069373;28;19980;-43
2022/01/26 00:56:15;;;;;;;;;;;3.00;99.90;;;;;;5067919;28;19939;-45
2022/01/26 00:58:41;;;;;;;;;;;3.00;99.90;;;;;;5052034;28;20358;-43
2022/01/26 01:01:07;;;;;;;;;;;3.00;99.90;;;;;;5054049;28;19924;-42
2022/01/26 01:03:36;;;;;;;;;;;3.00;99.90;;;;;;5063791;28;20008;-42
2022/01/26 01:06:09;;;;;;;;;;;3.00;99.90;;;;;;5051095;28;19963;-43
2022/01/26 01:08:35;;;;;;;;;;;3.00;99.90;;;;;;5063244;28;20293;-44
2022/01/26 01:11:01;;;;;;;;;;;3.00;99.90;;;;;;5032872;28;20057;-44
2022/01/26 01:13:37;;;;;;;;;;;3.00;99.90;;;;;;5053368;28;19943;-43
2022/01/26 01:16:04;;;;;;;;;;;3.00;99.90;;;;;;5063164;28;19971;-43
2022/01/26 01:34:05;;;;;;;;;;;2.90;99.90;;;;;;5048583;28;19960;-43
2022/01/26 01:36:32;;;;;;;;;;;2.90;99.90;;;;;;5068042;28;19928;-44
2022/01/26 01:38:58;;;;;;;;;;;2.90;99.90;;;;;;5050935;28;20516;-44
2022/01/26 01:41:24;;;;;;;;;;;3.00;99.90;;;;;;5044656;28;20016;-44
2022/01/26 01:43:49;;;;;;;;;;;2.90;99.90;;;;;;5064064;28;19975;-43
2022/01/26 01:46:15;;;;;;;;;;;2.90;99.90;;;;;;5072084;28;19924;-43
2022/01/26 01:48:41;;;;;;;;;;;2.90;99.90;;;;;;5068945;28;20007;-43
2022/01/26 01:51:10;;;;;;;;;;;2.90;99.90;;;;;;5060303;28;20416;-43
2022/01/26 01:53:41;;;;;;;;;;;2.90;99.90;;;;;;5063910;28;20343;-44
2022/01/26 01:56:11;;;;;;;;;;;2.90;99.90;;;;;;5067172;28;20426;-43
2022/01/26 01:58:37;;;;;;;;;;;2.90;99.90;;;;;;5052802;28;19932;-43
2022/01/26 02:01:04;;;;;;;;;;;2.90;99.90;;;;;;5050546;28;19916;-43
2022/01/26 02:03:29;;;;;;;;;;;2.90;99.90;;;;;;5069979;28;20269;-44
2022/01/26 02:05:55;;;;;;;;;;;2.90;99.90;;;;;;5066577;28;19916;-43
2022/01/26 02:08:21;;;;;;;;;;;2.90;99.90;;;;;;5046297;28;19967;-43
2022/01/26 02:10:47;;;;;;;;;;;2.90;99.90;;;;;;5065903;28;19923;-42
2022/01/26 02:13:26;;;;;;;;;;;2.90;99.90;;;;;;5068383;28;20007;-43
2022/01/26 02:56:17;;;;;;;;;;;2.80;99.90;;;;;;5059973;28;19920;-42
2022/01/26 03:03:49;;;;;;;;;;;2.80;99.90;;;;;;5066822;28;19916;-43
2022/01/26 03:06:20;;;;;;;;;;;2.80;99.90;;;;;;5059765;28;19927;-44
2022/01/26 03:08:58;;;;;;;;;;;2.90;99.90;;;;;;5066458;28;20015;-43
2022/01/26 03:11:28;;;;;;;;;;;2.80;99.90;;;;;;5051554;28;19930;-43
2022/01/26 03:14:03;;;;;;;;;;;2.90;99.90;;;;;;5048201;28;20351;-43
2022/01/26 03:16:38;;;;;;;;;;;2.90;99.90;;;;;;5065040;28;19928;-42
2022/01/26 03:19:50;;;;;;;;;;;2.80;99.90;;;;;;5039767;28;19928;-44
2022/01/26 03:30:55;;;;;;;;;;;2.80;99.90;;;;;;5067532;28;20493;-42
2022/01/26 03:35:29;;;;;;;;;;;2.80;99.90;;;;;;5066953;28;19931;-43
2022/01/26 03:37:57;;;;;;;;;;;2.80;99.90;;;;;;5017809;28;19955;-44
2022/01/26 03:40:31;;;;;;;;;;;2.80;99.90;;;;;;5058907;28;19999;-42
2022/01/26 03:42:57;;;;;;;;;;;2.80;99.90;;;;;;5042440;28;20373;-43
2022/01/26 03:45:25;;;;;;;;;;;2.80;99.90;;;;;;5050749;28;19924;-43
2022/01/26 03:47:51;;;;;;;;;;;2.80;99.90;;;;;;5030348;28;19916;-42
2022/01/26 03:50:23;;;;;;;;;;;2.80;99.90;;;;;;5063117;28;20308;-43
2022/01/26 03:52:49;;;;;;;;;;;2.80;99.90;;;;;;5069203;28;19922;-42
2022/01/26 03:55:16;;;;;;;;;;;2.80;99.90;;;;;;5087399;28;19998;-42
2022/01/26 03:57:41;;;;;;;;;;;2.80;99.90;;;;;;5083415;28;19916;-42
2022/01/26 04:00:08;;;;;;;;;;;2.80;99.90;;;;;;5066842;28;19993;-45
2022/01/26 04:02:34;;;;;;;;;;;2.80;99.90;;;;;;5047583;28;20483;-43
2022/01/26 04:05:03;;;;;;;;;;;2.80;99.90;;;;;;5070244;28;19977;-42
2022/01/26 04:07:29;;;;;;;;;;;2.80;99.90;;;;;;5082169;28;19935;-43
2022/01/26 04:10:03;;;;;;;;;;;2.80;99.90;;;;;;5053275;28;19916;-42
2022/01/26 04:12:29;;;;;;;;;;;2.80;99.90;;;;;;5085782;28;19982;-44
2022/01/26 04:15:02;;;;;;;;;;;2.80;99.90;;;;;;5082446;28;19920;-42
2022/01/26 04:17:28;;;;;;;;;;;2.80;99.90;;;;;;5057094;28;19931;-43
2022/01/26 04:19:57;;;;;;;;;;;2.70;99.90;;;;;;5074780;28;20429;-44
2022/01/26 04:22:30;;;;;;;;;;;2.70;99.90;;;;;;5071072;28;20526;-44
2022/01/26 04:24:57;;;;;;;;;;;2.70;99.90;;;;;;5054961;28;19924;-42
2022/01/26 04:29:49;;;;;;;;;;;2.70;99.90;;;;;;5065046;28;19916;-42
2022/01/26 04:32:16;;;;;;;;;;;2.70;99.90;;;;;;5086505;28;20314;-42
2022/01/26 04:34:42;;;;;;;;;;;2.70;99.90;;;;;;5083817;28;19985;-42
2022/01/26 04:37:20;;;;;;;;;;;2.70;99.90;;;;;;5068530;28;19973;-42
2022/01/26 04:39:56;;;;;;;;;;;2.70;99.90;;;;;;5083945;28;20257;-42
2022/01/26 04:42:42;;;;;;;;;;;2.70;99.90;;;;;;5066939;28;19920;-42
2022/01/26 04:45:10;;;;;;;;;;;2.60;99.90;;;;;;5084221;28;19920;-43
2022/01/26 04:47:37;;;;;;;;;;;2.60;99.90;;;;;;5068767;28;19916;-42
2022/01/26 04:50:03;;;;;;;;;;;2.60;99.90;;;;;;5082491;28;19927;-43
2022/01/26 04:52:29;;;;;;;;;;;2.60;99.90;;;;;;5047918;28;19939;-42
2022/01/26 04:54:55;;;;;;;;;;;2.60;99.90;;;;;;5062842;28;19925;-45
2022/01/26 04:57:20;;;;;;;;;;;2.60;99.90;;;;;;5051495;28;19977;-43
2022/01/26 04:59:46;;;;;;;;;;;2.60;99.90;;;;;;5066455;28;20285;-42
2022/01/26 05:02:12;;;;;;;;;;;2.60;99.90;;;;;;5046134;28;20468;-42
2022/01/26 05:04:38;;;;;;;;;;;2.60;99.90;;;;;;5065021;28;19925;-42
2022/01/26 05:07:03;;;;;;;;;;;2.60;99.90;;;;;;5033209;28;19959;-43
2022/01/26 05:09:29;;;;;;;;;;;2.60;99.90;;;;;;5068761;28;19965;-42
2022/01/26 05:11:56;;;;;;;;;;;2.60;99.90;;;;;;5068393;28;20532;-43
2022/01/26 05:14:22;;;;;;;;;;;2.60;99.90;;;;;;5051731;28;20475;-43
2022/01/26 05:16:48;;;;;;;;;;;2.60;99.90;;;;;;5036119;28;19982;-44
2022/01/26 05:19:13;;;;;;;;;;;2.60;99.90;;;;;;5072009;28;20007;-42
2022/01/26 05:21:41;;;;;;;;;;;2.60;99.90;;;;;;5048763;28;20425;-43
2022/01/26 05:24:07;;;;;;;;;;;2.60;99.90;;;;;;5085070;28;19939;-43
2022/01/26 05:26:33;;;;;;;;;;;2.60;99.90;;;;;;5049103;28;20335;-42
2022/01/26 05:28:58;;;;;;;;;;;2.60;99.90;;;;;;5067506;28;19916;-44
2022/01/26 05:31:24;;;;;;;;;;;2.60;99.90;;;;;;5084086;28;19923;-42
2022/01/26 05:33:50;;;;;;;;;;;2.60;99.90;;;;;;5032863;28;19920;-42
2022/01/26 05:36:16;;;;;;;;;;;2.50;99.90;;;;;;5050208;28;19916;-43
2022/01/26 05:38:42;;;;;;;;;;;2.50;99.90;;;;;;5068539;28;19979;-42
2022/01/26 05:41:08;;;;;;;;;;;2.50;99.90;;;;;;5052554;28;20028;-42
2022/01/26 05:43:34;;;;;;;;;;;2.50;99.90;;;;;;5052375;28;20370;-42
2022/01/26 05:46:06;;;;;;;;;;;2.50;99.90;;;;;;5069401;28;19969;-43
2022/01/26 05:48:33;;;;;;;;;;;2.50;99.90;;;;;;5067644;28;20473;-43
2022/01/26 05:51:07;;;;;;;;;;;2.50;99.90;;;;;;5065884;28;20282;-44
2022/01/26 05:53:33;;;;;;;;;;;2.20;99.90;;;;;;5068859;28;20410;-43
2022/01/26 05:56:00;;;;;;;;;;;2.50;99.90;;;;;;5049199;28;19960;-42
2022/01/26 05:58:25;;;;;;;;;;;2.50;99.90;;;;;;5066272;28;19928;-43
2022/01/26 06:00:51;;;;;;;;;;;2.50;99.90;;;;;;5070885;28;19925;-43
2022/01/26 06:03:17;;;;;;;;;;;2.50;99.90;;;;;;5050417;28;20003;-42
2022/01/26 06:05:43;;;;;;;;;;;2.50;99.90;;;;;;5048220;28;19920;-44
2022/01/26 06:08:09;;;;;;;;;;;2.50;99.90;;;;;;5047708;28;19925;-44
2022/01/26 06:10:34;;;;;;;;;;;2.50;99.90;;;;;;5068739;28;19916;-42
2022/01/26 06:13:00;;;;;;;;;;;2.50;99.90;;;;;;5052213;28;19999;-42
2022/01/26 06:15:26;;;;;;;;;;;2.50;99.90;;;;;;5046041;28;19932;-43
2022/01/26 06:17:52;;;;;;;;;;;2.50;99.90;;;;;;5049464;28;19955;-45
2022/01/26 06:20:17;;;;;;;;;;;2.50;99.90;;;;;;5049035;28;19921;-42
2022/01/26 06:22:43;;;;;;;;;;;2.50;99.90;;;;;;5083395;28;19959;-42
2022/01/26 06:25:09;;;;;;;;;;;2.50;99.90;;;;;;5030130;28;20004;-42
2022/01/26 06:27:36;;;;;;;;;;;2.50;99.90;;;;;;5067062;28;19924;-43
2022/01/26 06:30:03;;;;;;;;;;;2.50;99.90;;;;;;5049819;28;20652;-42
2022/01/26 06:32:28;;;;;;;;;;;2.50;99.90;;;;;;5067007;28;19916;-43
2022/01/26 06:34:55;;;;;;;;;;;2.50;99.90;;;;;;5047947;28;19943;-43
2022/01/26 06:37:20;;;;;;;;;;;2.50;99.90;;;;;;5046755;28;20008;-43
2022/01/26 06:39:46;;;;;;;;;;;2.50;99.90;;;;;;5084606;28;19931;-42
2022/01/26 06:42:15;;;;;;;;;;;2.50;99.90;;;;;;5044237;28;20255;-43
2022/01/26 06:45:08;;;;;;;;;;;2.50;99.90;;;;;;5062510;28;19923;-42
2022/01/26 06:50:00;;;;;;;;;;;2.50;99.90;;;;;;5068641;28;19920;-43
2022/01/26 06:52:26;;;;;;;;;;;2.50;99.90;;;;;;5067093;28;19931;-44
2022/01/26 06:54:52;;;;;;;;;;;2.50;99.90;;;;;;5082702;28;20277;-43
2022/01/26 06:57:18;;;;;;;;;;;2.50;99.90;;;;;;5032601;28;20455;-43
2022/01/26 06:59:43;;;;;;;;;;;2.50;99.90;;;;;;5068657;28;20011;-42
2022/01/26 07:02:09;;;;;;;;;;;2.50;99.90;;;;;;5050275;28;19917;-43
2022/01/26 07:04:35;;;;;;;;;;;2.50;99.90;;;;;;5052066;28;19916;-43
2022/01/26 07:07:01;;;;;;;;;;;2.50;99.90;;;;;;5064298;28;19962;-44
2022/01/26 07:09:27;;;;;;;;;;;2.50;99.90;;;;;;5045110;28;20243;-44
2022/01/26 07:11:53;;;;;;;;;;;2.50;99.90;;;;;;5059711;28;19927;-43
2022/01/26 07:20:03;;;;;;;;;;;2.50;99.90;;;;;;5061208;28;19920;-44
2022/01/26 07:22:29;;;;;;;;;;;2.50;99.90;;;;;;5046497;28;20466;-43
2022/01/26 07:24:55;;;;;;;;;;;2.60;99.90;;;;;;5064305;28;20015;-44
2022/01/26 07:27:21;;;;;;;;;;;2.50;99.90;;;;;;5049620;28;20408;-44
2022/01/26 07:29:48;;;;;;;;;;;2.50;99.90;;;;;;5049667;28;19920;-45
2022/01/26 07:32:14;;;;;;;;;;;2.60;99.90;;;;;;5050268;28;19920;-44
2022/01/26 07:34:41;;;;;;;;;;;2.60;99.90;;;;;;5067813;28;19970;-43
2022/01/26 07:37:09;;;;;;;;;;;2.60;99.90;;;;;;5063477;28;20016;-46
2022/01/26 07:39:49;;;;;;;;;;;2.50;99.90;;;;;;5068145;28;19939;-44
2022/01/26 07:42:14;;;;;;;;;;;2.60;99.90;;;;;;5061692;28;19917;-45
2022/01/26 07:44:41;;;;;;;;;;;2.60;99.90;;;;;;5067777;28;19924;-45
2022/01/26 07:47:06;;;;;;;;;;;2.60;99.90;;;;;;5028273;28;19928;-45
2022/01/26 07:49:33;;;;;;;;;;;2.60;99.90;;;;;;5065904;28;20010;-46
2022/01/26 07:51:58;;;;;;;;;;;2.60;99.90;;;;;;5046944;28;20290;-44
2022/01/26 07:54:25;;;;;;;;;;;2.60;99.90;;;;;;5069154;28;19920;-45
2022/01/26 07:56:50;;;;;;;;;;;2.60;99.90;;;;;;5066267;28;20341;-45
2022/01/26 07:59:16;;;;;;;;;;;2.60;99.90;;;;;;5039227;28;19917;-45
2022/01/26 08:01:42;;;;;;;;;;;2.60;99.90;;;;;;5065941;28;19916;-45
2022/01/26 08:04:07;;;;;;;;;;;2.60;99.90;;;;;;5046762;28;19921;-44
2022/01/26 08:06:34;;;;;;;;;;;2.70;99.90;;;;;;5081332;28;19916;-46
2022/01/26 08:09:00;;;;;;;;;;;2.70;99.90;;;;;;5066455;28;19960;-46
2022/01/26 08:11:27;;;;;;;;;;;2.70;99.90;;;;;;5048411;28;19990;-45
2022/01/26 08:13:53;;;;;;;;;;;2.70;99.90;;;;;;5063333;28;19920;-44
2022/01/26 08:16:18;;;;;;;;;;;2.70;99.90;;;;;;5066595;28;20304;-44
2022/01/26 08:18:44;;;;;;;;;;;2.70;99.90;;;;;;5043818;28;19920;-44
2022/01/26 08:21:11;;;;;;;;;;;2.70;99.90;;;;;;5049036;28;20026;-45
2022/01/26 08:23:37;;;;;;;;;;;2.70;99.90;;;;;;5066039;28;19978;-46
2022/01/26 08:26:03;;;;;;;;;;;2.70;99.90;;;;;;5049445;28;19923;-45
2022/01/26 08:28:39;;;;;;;;;;;2.80;99.90;;;;;;5046548;28;19920;-46
2022/01/26 08:31:05;;;;;;;;;;;2.80;99.90;;;;;;5060120;28;20256;-47
2022/01/26 08:33:31;;;;;;;;;;;2.80;99.90;;;;;;5069702;28;19925;-46
2022/01/26 08:35:57;;;;;;;;;;;2.80;99.90;;;;;;5051960;28;19929;-45
2022/01/26 08:38:23;;;;;;;;;;;2.80;99.90;;;;;;5052828;28;20003;-45
2022/01/26 08:40:49;;;;;;;;;;;2.80;99.90;;;;;;5082736;28;19959;-46
2022/01/26 08:43:15;;;;;;;;;;;2.90;99.90;;;;;;5068198;28;19971;-45
2022/01/26 08:45:41;;;;;;;;;;;2.90;99.90;;;;;;5053526;28;19917;-46
2022/01/26 08:48:07;;;;;;;;;;;2.90;99.90;;;;;;5072148;28;19929;-45
2022/01/26 08:50:33;;;;;;;;;;;2.90;99.90;;;;;;5069698;28;20583;-45
2022/01/26 08:52:59;;;;;;;;;;;2.90;99.90;;;;;;5068032;28;19916;-45
2022/01/26 08:55:25;;;;;;;;;;;2.90;99.90;;;;;;5057403;28;20371;-45
2022/01/26 08:57:51;;;;;;;;;;;2.90;99.90;;;;;;5052307;28;19987;-45
2022/01/26 09:00:17;;;;;;;;;;;2.90;99.90;;;;;;5034372;28;20228;-45
2022/01/26 09:02:43;;;;;;;;;;;3.00;99.90;;;;;;5083892;28;20342;-45
2022/01/26 09:05:09;;;;;;;;;;;3.00;99.90;;;;;;5071000;28;19967;-46
2022/01/26 09:07:35;;;;;;;;;;;3.00;99.90;;;;;;5072871;28;19917;-46
2022/01/26 09:10:02;;;;;;;;;;;3.00;99.90;;;;;;5067671;28;19967;-45
2022/01/26 09:12:29;;;;;;;;;;;3.00;99.90;;;;;;5054969;28;20361;-44
2022/01/26 09:15:00;;;;;;;;;;;3.00;99.90;;;;;;5070230;28;20000;-46
2022/01/26 09:17:27;;;;;;;;;;;3.10;99.90;;;;;;5072913;28;20021;-45
2022/01/26 09:19:56;;;;;;;;;;;3.10;99.90;;;;;;5068955;28;19995;-44
2022/01/26 09:22:21;;;;;;;;;;;3.10;99.90;;;;;;5069098;28;19916;-45
2022/01/26 09:24:47;;;;;;;;;;;3.10;99.90;;;;;;5067467;28;19927;-45
2022/01/26 09:27:14;;;;;;;;;;;3.10;99.90;;;;;;5061272;28;19927;-44
2022/01/26 09:29:41;;;;;;;;;;;3.10;99.90;;;;;;5064590;28;20283;-46
2022/01/26 09:32:07;;;;;;;;;;;3.20;99.90;;;;;;5069323;28;19939;-44
2022/01/26 09:34:37;;;;;;;;;;;3.20;99.90;;;;;;5051801;28;19928;-45
2022/01/26 09:37:07;;;;;;;;;;;3.20;99.90;;;;;;5062370;28;19939;-45
2022/01/26 09:39:33;;;;;;;;;;;3.20;99.90;;;;;;5051257;28;19939;-48
2022/01/26 09:41:59;;;;;;;;;;;3.30;99.90;;;;;;5067469;28;19925;-45
2022/01/26 09:44:25;;;;;;;;;;;3.20;99.90;;;;;;5068181;28;20332;-45
2022/01/26 09:46:51;;;;;;;;;;;3.30;99.90;;;;;;5051267;28;19916;-45
2022/01/26 09:49:18;;;;;;;;;;;3.30;99.90;;;;;;5071213;28;19924;-46
2022/01/26 09:51:47;;;;;;;;;;;3.40;99.90;;;;;;5034041;28;20294;-44
2022/01/26 09:54:15;;;;;;;;;;;3.40;99.90;;;;;;5070413;28;19931;-45
2022/01/26 09:56:43;;;;;;;;;;;3.40;99.90;;;;;;5071314;28;19973;-45
2022/01/26 09:59:10;;;;;;;;;;;3.40;99.90;;;;;;5075999;28;19964;-47
2022/01/26 10:01:43;;;;;;;;;;;3.40;99.90;;;;;;5034174;28;19931;-46
2022/01/26 10:04:18;;;;;;;;;;;3.40;99.90;;;;;;5071377;28;19999;-45
2022/01/26 10:06:44;;;;;;;;;;;3.50;99.90;;;;;;5051775;28;20350;-46
2022/01/26 10:17:35;;;;;;;;;;;3.50;99.90;;;;;;5066354;28;20427;-45
2022/01/26 10:20:03;;;;;;;;;;;3.60;99.90;;;;;;5036266;28;19916;-46
2022/01/26 10:22:30;;;;;;;;;;;3.60;99.90;;;;;;5053086;28;19920;-44
2022/01/26 10:25:25;;;;;;;;;;;3.60;99.90;;;;;;5053827;28;19966;-45
2022/01/26 10:27:51;;;;;;;;;;;3.60;99.90;;;;;;5050287;28;19920;-45
2022/01/26 10:30:18;;;;;;;;;;;3.70;99.90;;;;;;5046611;28;19920;-45
2022/01/26 10:32:47;;;;;;;;;;;3.70;99.90;;;;;;5067481;28;19920;-45
2022/01/26 10:35:14;;;;;;;;;;;3.70;99.90;;;;;;5050626;28;19946;-46
2022/01/26 10:37:53;;;;;;;;;;;3.70;99.90;;;;;;5067343;28;19922;-46
2022/01/26 10:40:22;;;;;;;;;;;3.80;99.90;;;;;;5068144;28;19932;-47
2022/01/26 10:42:56;;;;;;;;;;;3.80;99.90;;;;;;5070382;28;19920;-46
2022/01/26 10:45:34;;;;;;;;;;;3.80;99.90;;;;;;5065421;28;19920;-45
2022/01/26 10:48:18;;;;;;;;;;;3.90;99.90;;;;;;5047410;28;19917;-46
2022/01/26 10:50:58;;;;;;;;;;;3.80;99.90;;;;;;5070884;28;20025;-45
2022/01/26 10:53:32;;;;;;;;;;;3.90;99.90;;;;;;5070700;28;19951;-46
2022/01/26 10:55:58;;;;;;;;;;;3.90;99.90;;;;;;5069125;28;20306;-45
2022/01/26 10:58:24;;;;;;;;;;;3.90;99.90;;;;;;5051242;28;20461;-46
2022/01/26 11:00:52;;;;;;;;;;;3.90;99.90;;;;;;5070085;28;19916;-45
2022/01/26 11:03:18;;;;;;;;;;;3.90;99.90;;;;;;5068238;28;19927;-46
2022/01/26 11:05:45;;;;;;;;;;;3.90;99.90;;;;;;5069291;28;19916;-44
2022/01/26 11:08:11;;;;;;;;;;;3.90;99.90;;;;;;5068864;28;20022;-45
2022/01/26 11:10:38;;;;;;;;;;;3.90;99.90;;;;;;5070418;28;19931;-45
2022/01/26 11:13:05;;;;;;;;;;;3.90;99.90;;;;;;5085051;28;20373;-45
2022/01/26 11:15:32;;;;;;;;;;;3.90;99.90;;;;;;5055118;28;19967;-45
2022/01/26 11:18:08;;;;;;;;;;;4.00;99.90;;;;;;5069326;28;19920;-45
2022/01/26 11:20:44;;;;;;;;;;;3.90;99.90;;;;;;5067803;28;19916;-46
2022/01/26 11:23:10;;;;;;;;;;;4.00;99.90;;;;;;5065212;28;20351;-46
2022/01/26 11:25:43;;;;;;;;;;;4.00;99.90;;;;;;5066236;28;19916;-45
2022/01/26 11:28:20;;;;;;;;;;;4.00;99.90;;;;;;5067296;28;19916;-45
2022/01/26 11:30:46;;;;;;;;;;;4.00;99.90;;;;;;5066418;28;19924;-47
2022/01/26 11:33:14;;;;;;;;;;;4.00;99.90;;;;;;5068468;28;19967;-45
2022/01/26 11:35:43;;;;;;;;;;;4.00;99.90;;;;;;5073278;28;20019;-46
2022/01/26 11:46:30;;;;;;;;;;;4.30;99.90;;;;;;5071080;28;19924;-45
2022/01/26 11:49:11;;;;;;;;;;;4.30;99.90;;;;;;5072646;28;20019;-45
2022/01/26 11:51:44;;;;;;;;;;;4.30;99.90;;;;;;5064321;28;20726;-46
2022/01/26 11:54:12;;;;;;;;;;;4.40;99.90;;;;;;5066142;28;20255;-45
2022/01/26 11:56:38;;;;;;;;;;;4.40;99.90;;;;;;5065801;28;19989;-46
2022/01/26 11:59:03;;;;;;;;;;;4.30;99.90;;;;;;5068253;28;20402;-45
2022/01/26 12:01:38;;;;;;;;;;;4.30;99.90;;;;;;5081570;28;19939;-45
2022/01/26 12:04:12;;;;;;;;;;;4.30;99.90;;;;;;5066328;28;19916;-45
2022/01/26 12:06:47;;;;;;;;;;;4.30;99.90;;;;;;5066212;28;20003;-46
2022/01/26 12:09:13;;;;;;;;;;;4.30;99.90;;;;;;5080454;28;20004;-45
2022/01/26 12:11:39;;;;;;;;;;;4.30;99.90;;;;;;5067098;28;19924;-46
2022/01/26 12:14:06;;;;;;;;;;;4.30;99.90;;;;;;5059514;28;19978;-46
2022/01/26 12:16:39;;;;;;;;;;;4.30;99.90;;;;;;5062329;28;19931;-46
2022/01/26 12:36:02;;;;;;;;;;;4.40;99.90;;;;;;5060668;28;20364;-44
2022/01/26 12:38:50;;;;;;;;;;;4.40;99.90;;;;;;5066165;28;19973;-45
2022/01/26 12:41:34;;;;;;;;;;;4.40;99.90;;;;;;5046810;28;19917;-46
2022/01/26 12:44:10;;;;;;;;;;;4.50;99.90;;;;;;5070501;28;20397;-46
2022/01/26 12:46:37;;;;;;;;;;;4.50;99.90;;;;;;5063499;28;20018;-45
2022/01/26 12:49:07;;;;;;;;;;;4.50;99.90;;;;;;5066055;28;20007;-45
2022/01/26 12:51:43;;;;;;;;;;;4.50;99.90;;;;;;5045437;28;20003;-47
2022/01/26 12:54:09;;;;;;;;;;;4.50;99.90;;;;;;5050173;28;20003;-47
2022/01/26 12:56:35;;;;;;;;;;;4.50;99.90;;;;;;5066253;28;20053;-45
2022/01/26 12:59:05;;;;;;;;;;;4.50;99.90;;;;;;5046607;28;20020;-45
2022/01/26 13:01:32;;;;;;;;;;;4.50;99.90;;;;;;5065068;28;20053;-45
2022/01/26 13:03:59;;;;;;;;;;;4.50;99.90;;;;;;5065503;28;19928;-44
2022/01/26 13:06:26;;;;;;;;;;;4.50;99.90;;;;;;5066262;28;19916;-46
2022/01/26 13:08:53;;;;;;;;;;;4.60;99.90;;;;;;5068546;28;20002;-44
2022/01/26 13:11:25;;;;;;;;;;;4.60;99.90;;;;;;5049586;28;19916;-45
2022/01/26 13:14:15;;;;;;;;;;;4.60;99.90;;;;;;5078992;28;20370;-46
2022/01/26 13:16:46;;;;;;;;;;;4.60;99.90;;;;;;5082112;28;20302;-45
2022/01/26 13:19:54;;;;;;;;;;;4.60;99.90;;;;;;5071190;28;20003;-45
2022/01/26 13:22:34;;;;;;;;;;;4.70;99.90;;;;;;5046679;28;19917;-44
2022/01/26 13:30:16;;;;;;;;;;;4.80;99.90;;;;;;5067408;28;19996;-44
2022/01/26 13:39:16;;;;;;;;;;;4.90;99.90;;;;;;5066039;28;19955;-45
2022/01/26 13:44:32;;;;;;;;;;;4.90;99.90;;;;;;5063592;28;19916;-45
2022/01/26 13:49:33;;;;;;;;;;;4.90;99.90;;;;;;5057329;28;19956;-45
2022/01/26 13:52:20;;;;;;;;;;;4.90;99.90;;;;;;5068455;28;19916;-45
2022/01/26 13:59:54;;;;;;;;;;;5.00;99.90;;;;;;5079792;28;19920;-45
2022/01/26 14:02:20;;;;;;;;;;;5.00;99.90;;;;;;5055711;28;19923;-46
2022/01/26 14:04:46;;;;;;;;;;;5.00;99.90;;;;;;5071270;28;19932;-45
2022/01/26 14:07:12;;;;;;;;;;;5.00;99.90;;;;;;5088445;28;19916;-45
2022/01/26 14:09:40;;;;;;;;;;;5.00;99.90;;;;;;5087042;28;19920;-46
2022/01/26 14:12:10;;;;;;;;;;;5.00;99.90;;;;;;5088994;28;19929;-49
2022/01/26 14:14:41;;;;;;;;;;;5.10;99.90;;;;;;5071459;28;19920;-45
2022/01/26 14:17:14;;;;;;;;;;;5.00;99.90;;;;;;5053912;28;19916;-46
2022/01/26 14:20:07;;;;;;;;;;;5.10;99.90;;;;;;5072916;28;19916;-46
2022/01/26 14:22:36;;;;;;;;;;;5.00;99.90;;;;;;5068628;28;19918;-45
2022/01/26 14:27:37;;;;;;;;;;;5.00;99.90;;;;;;5069567;28;19920;-46
2022/01/26 14:30:17;;;;;;;;;;;5.10;99.90;;;;;;5089558;28;20377;-46
2022/01/26 14:51:50;;;;;;;;;;;5.10;99.90;;;;;;5050151;28;19920;-46
2022/01/26 14:54:26;;;;;;;;;;;5.10;99.90;;;;;;5048888;28;20363;-44
2022/01/26 15:00:09;;;;;;;;;;;5.10;99.90;;;;;;5053460;28;19920;-45
2022/01/26 15:50:57;;;;;;;;;;;5.10;99.90;;;;;;5065716;28;19944;-46
2022/01/26 16:07:00;;;;;;;;;;;5.00;99.90;;;;;;5048456;28;19916;-45
2022/01/26 18:15:38;;;;;;;;;;;5.20;99.90;;;;;;5069781;28;19926;-44
2022/01/26 18:31:59;;;;;;;;;;;5.30;99.90;;;;;;5084068;28;19987;-44
2022/01/26 18:50:39;;;;;;;;;;;5.30;99.90;;;;;;5054971;28;19963;-43
2022/01/26 18:53:07;;;;;;;;;;;5.30;99.90;;;;;;5064748;28;19924;-44
2022/01/26 18:55:33;;;;;;;;;;;5.40;99.90;;;;;;5069690;28;19920;-44
2022/01/26 18:57:59;;;;;;;;;;;5.40;99.90;;;;;;5076567;28;19922;-44
2022/01/26 19:00:25;;;;;;;;;;;5.40;99.90;;;;;;5066112;28;20438;-44
2022/01/26 19:02:50;;;;;;;;;;;5.40;99.90;;;;;;5066323;28;19967;-44
2022/01/26 19:05:17;;;;;;;;;;;5.40;99.90;;;;;;5048998;28;20355;-42
2022/01/26 19:07:44;;;;;;;;;;;5.40;99.90;;;;;;5048440;28;20461;-44
2022/01/26 19:10:10;;;;;;;;;;;5.50;99.90;;;;;;5048862;28;19927;-44
2022/01/26 19:12:38;;;;;;;;;;;5.50;99.90;;;;;;5066212;28;19942;-44
2022/01/26 19:15:08;;;;;;;;;;;5.50;99.90;;;;;;5077669;28;19985;-43
2022/01/26 19:17:48;;;;;;;;;;;5.50;99.90;;;;;;5068381;28;20041;-43
2022/01/26 19:25:34;;;;;;;;;;;5.50;99.90;;;;;;5066360;28;20003;-45
2022/01/26 19:52:09;;;;;;;;;;;5.60;99.90;;;;;;5063028;28;20013;-43
2022/01/26 19:54:35;;;;;;;;;;;5.60;99.90;;;;;;5070065;28;19920;-44
2022/01/26 19:57:03;;;;;;;;;;;5.70;99.90;;;;;;5083617;28;20469;-43
2022/01/26 19:59:28;;;;;;;;;;;5.70;99.90;;;;;;5083471;28;19915;-44
2022/01/26 20:01:55;;;;;;;;;;;5.60;99.90;;;;;;5082731;28;20557;-44
2022/01/26 20:04:21;;;;;;;;;;;5.70;99.90;;;;;;5065571;28;19920;-44
2022/01/26 20:06:47;;;;;;;;;;;5.70;99.90;;;;;;5085632;28;19920;-43
2022/01/26 20:09:22;;;;;;;;;;;5.70;99.90;;;;;;5102492;28;21203;-46
2022/01/26 20:11:58;;;;;;;;;;;5.70;99.90;;;;;;5083396;28;19927;-43
2022/01/26 20:14:32;;;;;;;;;;;5.70;99.90;;;;;;5080112;28;19916;-44
2022/01/26 20:17:05;;;;;;;;;;;5.70;99.90;;;;;;5100233;28;20006;-44
2022/01/26 20:19:31;;;;;;;;;;;5.70;99.90;;;;;;5081393;28;19924;-44
2022/01/26 20:22:01;;;;;;;;;;;5.70;99.90;;;;;;5104855;28;19971;-43
2022/01/26 20:24:27;;;;;;;;;;;5.70;99.90;;;;;;5067744;28;19934;-46
2022/01/26 20:26:54;;;;;;;;;;;5.70;99.90;;;;;;5083654;28;20278;-45
2022/01/26 20:29:30;;;;;;;;;;;5.70;99.90;;;;;;5088367;28;19924;-44
2022/01/26 20:31:56;;;;;;;;;;;5.70;99.90;;;;;;5092570;28;19928;-43
2022/01/26 20:34:22;;;;;;;;;;;5.80;99.90;;;;;;5091072;28;19930;-46
2022/01/26 20:36:47;;;;;;;;;;;5.70;99.90;;;;;;5074279;28;20011;-43
2022/01/26 20:39:13;;;;;;;;;;;5.80;99.90;;;;;;5072823;28;19959;-44
2022/01/26 20:41:39;;;;;;;;;;;5.80;99.90;;;;;;5071338;28;20696;-43
2022/01/26 20:44:05;;;;;;;;;;;5.80;99.90;;;;;;5089987;28;19976;-43
2022/01/26 20:46:31;;;;;;;;;;;5.80;99.90;;;;;;5050024;28;19920;-44
2022/01/26 20:48:57;;;;;;;;;;;5.80;99.90;;;;;;5085504;28;20034;-43
2022/01/26 20:51:23;;;;;;;;;;;5.80;99.90;;;;;;5048202;28;19971;-43
2022/01/26 20:53:48;;;;;;;;;;;5.80;99.90;;;;;;5070143;28;20269;-43
2022/01/26 20:56:16;;;;;;;;;;;5.90;99.90;;;;;;5050934;28;19932;-44
2022/01/26 20:58:43;;;;;;;;;;;5.90;99.90;;;;;;5032642;28;19924;-43
2022/01/26 21:01:09;;;;;;;;;;;5.90;99.90;;;;;;5033142;28;19923;-44
2022/01/26 21:03:35;;;;;;;;;;;5.80;99.90;;;;;;5070103;28;19969;-43
2022/01/26 21:06:01;;;;;;;;;;;5.90;99.90;;;;;;5067347;28;20003;-44
2022/01/26 21:08:27;;;;;;;;;;;5.90;99.90;;;;;;5066200;28;19917;-44
2022/01/26 21:10:53;;;;;;;;;;;5.90;99.90;;;;;;5068682;28;19924;-43
2022/01/26 21:13:19;;;;;;;;;;;5.90;99.90;;;;;;5052895;28;20603;-42
2022/01/26 21:15:45;;;;;;;;;;;5.90;99.90;;;;;;5049996;28;19924;-48
2022/01/26 21:18:12;;;;;;;;;;;5.90;99.90;;;;;;5048709;28;19920;-45
2022/01/26 21:20:38;;;;;;;;;;;6.00;99.90;;;;;;5047426;28;19931;-43
2022/01/26 21:23:04;;;;;;;;;;;6.00;99.90;;;;;;5047527;28;20297;-44
2022/01/26 21:25:30;;;;;;;;;;;6.00;99.90;;;;;;5049383;28;19920;-45
2022/01/26 21:27:56;;;;;;;;;;;5.90;99.90;;;;;;5048110;28;20362;-43
2022/01/26 21:30:23;;;;;;;;;;;6.00;99.90;;;;;;5043659;28;19935;-44
2022/01/26 21:32:49;;;;;;;;;;;6.00;99.90;;;;;;5070282;28;19916;-43
2022/01/26 21:35:15;;;;;;;;;;;6.00;99.90;;;;;;5050888;28;19932;-44
2022/01/26 21:37:41;;;;;;;;;;;5.90;99.90;;;;;;5066879;28;19928;-42
2022/01/26 21:40:07;;;;;;;;;;;5.90;99.90;;;;;;5065631;28;19916;-43
2022/01/26 21:42:33;;;;;;;;;;;5.90;99.90;;;;;;5078747;28;19917;-44
2022/01/26 21:44:58;;;;;;;;;;;5.90;99.90;;;;;;5068778;28;19923;-42
2022/01/26 21:47:24;;;;;;;;;;;5.90;99.90;;;;;;5035381;28;19930;-44
2022/01/26 21:49:51;;;;;;;;;;;5.90;99.90;;;;;;5056268;28;19920;-45